sensor_id;sensor_type;location;lat;lon;timestamp;temperature;humidity
34558;DHT22;24708;48.888;8.736;2023-06-22T05:32:53;26.90;99.90
34558;DHT22;24708;48.888;8.736;2023-06-22T05:35:20;26.70;99.90
34558;DHT22;24708;48.888;8.736;2023-06-22T05:40:15;26.20;99.90
34558;DHT22;24708;48.888;8.736;2023-06-22T05:45:10;26.10;99.90
34558;DHT22;24708;48.888;8.736;2023-06-22T05:47:38;26.40;99.90
34558;DHT22;24708;48.888;8.736;2023-06-22T05:50:05;26.70;99.90
34558;DHT22;24708;48.888;8.736;2023-06-22T05:55:07;26.10;99.90
34558;DHT22;24708;48.888;8.736;2023-06-22T06:00:03;27.10;99.90
34558;DHT22;24708;48.888;8.736;2023-06-22T06:02:34;27.70;99.90
34558;DHT22;24708;48.888;8.736;2023-06-22T06:05:03;27.60;99.90
34558;DHT22;24708;48.888;8.736;2023-06-22T06:07:30;28.40;99.90
34558;DHT22;24708;48.888;8.736;2023-06-22T06:09:58;29.00;99.90
34558;DHT22;24708;48.888;8.736;2023-06-22T06:17:22;29.60;99.90
34558;DHT22;24708;48.888;8.736;2023-06-22T06:19:50;29.60;99.90
34558;DHT22;24708;48.888;8.736;2023-06-22T06:22:20;29.70;99.90
34558;DHT22;24708;48.888;8.736;2023-06-22T06:29:46;30.40;99.90
34558;DHT22;24708;48.888;8.736;2023-06-22T06:32:15;31.00;99.90
34558;DHT22;24708;48.888;8.736;2023-06-22T06:34:43;30.50;99.90
34558;DHT22;24708;48.888;8.736;2023-06-22T06:37:11;30.00;99.90
34558;DHT22;24708;48.888;8.736;2023-06-22T06:42:09;30.50;99.90
34558;DHT22;24708;48.888;8.736;2023-06-22T06:44:38;32.10;99.90
34558;DHT22;24708;48.888;8.736;2023-06-22T06:47:06;32.20;99.90
34558;DHT22;24708;48.888;8.736;2023-06-22T06:49:33;32.00;99.90
34558;DHT22;24708;48.888;8.736;2023-06-22T06:52:01;32.40;99.90
34558;DHT22;24708;48.888;8.736;2023-06-22T06:54:29;32.10;99.90
34558;DHT22;24708;48.888;8.736;2023-06-22T06:56:56;32.70;99.90
34558;DHT22;24708;48.888;8.736;2023-06-22T06:59:24;34.10;99.90
34558;DHT22;24708;48.888;8.736;2023-06-22T07:01:51;33.60;99.90
34558;DHT22;24708;48.888;8.736;2023-06-22T07:04:20;33.40;99.50
34558;DHT22;24708;48.888;8.736;2023-06-22T07:06:47;32.80;99.40
34558;DHT22;24708;48.888;8.736;2023-06-22T07:09:15;32.10;99.90
34558;DHT22;24708;48.888;8.736;2023-06-22T07:11:42;32.20;99.90
34558;DHT22;24708;48.888;8.736;2023-06-22T07:14:10;32.30;99.90
34558;DHT22;24708;48.888;8.736;2023-06-22T07:16:37;31.60;99.90
34558;DHT22;24708;48.888;8.736;2023-06-22T07:19:04;30.90;99.90
34558;DHT22;24708;48.888;8.736;2023-06-22T07:21:34;30.60;99.90
34558;DHT22;24708;48.888;8.736;2023-06-22T07:24:01;31.90;99.50
34558;DHT22;24708;48.888;8.736;2023-06-22T07:26:28;30.40;99.90
34558;DHT22;24708;48.888;8.736;2023-06-22T07:28:56;31.20;99.90
34558;DHT22;24708;48.888;8.736;2023-06-22T07:31:26;29.60;99.90
34558;DHT22;24708;48.888;8.736;2023-06-22T07:33:53;30.00;99.90
34558;DHT22;24708;48.888;8.736;2023-06-22T07:36:21;30.80;99.90
34558;DHT22;24708;48.888;8.736;2023-06-22T07:38:48;31.30;99.90
34558;DHT22;24708;48.888;8.736;2023-06-22T07:41:15;32.10;99.10
34558;DHT22;24708;48.888;8.736;2023-06-22T07:43:43;31.20;99.70
34558;DHT22;24708;48.888;8.736;2023-06-22T07:46:10;32.10;99.50
34558;DHT22;24708;48.888;8.736;2023-06-22T07:48:37;33.50;98.50
34558;DHT22;24708;48.888;8.736;2023-06-22T07:51:05;34.60;96.60
34558;DHT22;24708;48.888;8.736;2023-06-22T07:53:33;34.90;96.10
34558;DHT22;24708;48.888;8.736;2023-06-22T07:56:04;34.40;95.20
34558;DHT22;24708;48.888;8.736;2023-06-22T07:58:34;32.50;99.90
34558;DHT22;24708;48.888;8.736;2023-06-22T08:01:02;32.10;98.00
34558;DHT22;24708;48.888;8.736;2023-06-22T08:03:30;33.40;96.50
34558;DHT22;24708;48.888;8.736;2023-06-22T08:05:58;33.20;99.90
34558;DHT22;24708;48.888;8.736;2023-06-22T08:08:29;33.40;97.30
34558;DHT22;24708;48.888;8.736;2023-06-22T08:10:57;31.30;99.90
34558;DHT22;24708;48.888;8.736;2023-06-22T08:13:24;30.50;98.50
34558;DHT22;24708;48.888;8.736;2023-06-22T08:15:52;30.60;99.30
34558;DHT22;24708;48.888;8.736;2023-06-22T08:18:20;31.00;98.60
34558;DHT22;24708;48.888;8.736;2023-06-22T08:20:47;30.60;99.80
34558;DHT22;24708;48.888;8.736;2023-06-22T08:23:15;30.20;99.50
34558;DHT22;24708;48.888;8.736;2023-06-22T08:25:42;30.10;99.90
34558;DHT22;24708;48.888;8.736;2023-06-22T08:28:09;30.10;99.90
34558;DHT22;24708;48.888;8.736;2023-06-22T08:30:37;29.30;99.90
34558;DHT22;24708;48.888;8.736;2023-06-22T08:33:08;28.90;99.90
34558;DHT22;24708;48.888;8.736;2023-06-22T08:35:36;28.40;99.90
34558;DHT22;24708;48.888;8.736;2023-06-22T08:38:07;28.80;99.90
34558;DHT22;24708;48.888;8.736;2023-06-22T08:40:36;29.00;99.90
34558;DHT22;24708;48.888;8.736;2023-06-22T08:43:13;28.20;99.90
34558;DHT22;24708;48.888;8.736;2023-06-22T08:45:41;28.60;99.90
34558;DHT22;24708;48.888;8.736;2023-06-22T08:48:11;28.00;99.90
34558;DHT22;24708;48.888;8.736;2023-06-22T08:50:45;28.00;99.90
34558;DHT22;24708;48.888;8.736;2023-06-22T08:53:12;27.90;99.90
34558;DHT22;24708;48.888;8.736;2023-06-22T08:55:40;27.70;99.90
34558;DHT22;24708;48.888;8.736;2023-06-22T08:58:07;27.90;99.90
34558;DHT22;24708;48.888;8.736;2023-06-22T09:00:35;27.60;99.90
34558;DHT22;24708;48.888;8.736;2023-06-22T09:03:03;27.50;99.90
34558;DHT22;24708;48.888;8.736;2023-06-22T09:05:30;28.30;99.90
34558;DHT22;24708;48.888;8.736;2023-06-22T09:07:58;29.20;99.90
34558;DHT22;24708;48.888;8.736;2023-06-22T09:10:26;29.40;99.90
34558;DHT22;24708;48.888;8.736;2023-06-22T09:12:53;31.00;99.90
34558;DHT22;24708;48.888;8.736;2023-06-22T09:15:21;32.30;99.90
34558;DHT22;24708;48.888;8.736;2023-06-22T09:17:48;32.20;99.90
34558;DHT22;24708;48.888;8.736;2023-06-22T09:20:16;32.30;99.60
34558;DHT22;24708;48.888;8.736;2023-06-22T09:22:43;32.90;99.20
34558;DHT22;24708;48.888;8.736;2023-06-22T09:25:10;34.10;97.80
34558;DHT22;24708;48.888;8.736;2023-06-22T09:27:38;35.30;97.20
34558;DHT22;24708;48.888;8.736;2023-06-22T09:30:06;34.30;95.80
34558;DHT22;24708;48.888;8.736;2023-06-22T09:35:04;35.30;94.80
34558;DHT22;24708;48.888;8.736;2023-06-22T09:37:40;34.70;95.10
34558;DHT22;24708;48.888;8.736;2023-06-22T09:40:08;34.30;94.20
34558;DHT22;24708;48.888;8.736;2023-06-22T09:42:38;34.00;95.20
34558;DHT22;24708;48.888;8.736;2023-06-22T09:45:06;34.00;94.80
34558;DHT22;24708;48.888;8.736;2023-06-22T09:47:33;33.40;94.90
34558;DHT22;24708;48.888;8.736;2023-06-22T09:50:01;32.70;95.50
34558;DHT22;24708;48.888;8.736;2023-06-22T09:52:28;31.40;98.00
34558;DHT22;24708;48.888;8.736;2023-06-22T09:55:15;31.70;96.80
34558;DHT22;24708;48.888;8.736;2023-06-22T09:57:43;32.70;96.70
34558;DHT22;24708;48.888;8.736;2023-06-22T10:00:11;32.80;96.30
34558;DHT22;24708;48.888;8.736;2023-06-22T10:02:41;32.40;95.70
34558;DHT22;24708;48.888;8.736;2023-06-22T10:05:09;32.50;96.90
34558;DHT22;24708;48.888;8.736;2023-06-22T10:07:38;33.00;97.00
34558;DHT22;24708;48.888;8.736;2023-06-22T10:10:13;33.20;96.20
34558;DHT22;24708;48.888;8.736;2023-06-22T10:12:44;32.80;96.20
34558;DHT22;24708;48.888;8.736;2023-06-22T10:15:12;32.80;96.50
34558;DHT22;24708;48.888;8.736;2023-06-22T10:17:40;32.60;98.80
34558;DHT22;24708;48.888;8.736;2023-06-22T10:20:08;32.70;97.30
34558;DHT22;24708;48.888;8.736;2023-06-22T10:22:42;32.50;98.10
34558;DHT22;24708;48.888;8.736;2023-06-22T10:25:11;32.40;98.90
34558;DHT22;24708;48.888;8.736;2023-06-22T10:27:39;32.10;96.70
34558;DHT22;24708;48.888;8.736;2023-06-22T10:30:10;32.30;96.60
34558;DHT22;24708;48.888;8.736;2023-06-22T10:32:40;32.60;96.90
34558;DHT22;24708;48.888;8.736;2023-06-22T10:35:12;32.20;97.00
34558;DHT22;24708;48.888;8.736;2023-06-22T10:37:43;32.60;97.00
34558;DHT22;24708;48.888;8.736;2023-06-22T10:40:16;32.90;97.10
34558;DHT22;24708;48.888;8.736;2023-06-22T10:42:44;33.10;98.20
34558;DHT22;24708;48.888;8.736;2023-06-22T10:45:12;32.80;98.60
34558;DHT22;24708;48.888;8.736;2023-06-22T10:52:39;32.10;96.80
34558;DHT22;24708;48.888;8.736;2023-06-22T10:55:10;31.90;99.90
34558;DHT22;24708;48.888;8.736;2023-06-22T10:57:38;31.60;96.80
34558;DHT22;24708;48.888;8.736;2023-06-22T11:05:06;32.80;98.10
34558;DHT22;24708;48.888;8.736;2023-06-22T11:14:56;32.70;99.90
34558;DHT22;24708;48.888;8.736;2023-06-22T11:17:25;33.20;99.90
34558;DHT22;24708;48.888;8.736;2023-06-22T11:19:53;33.20;99.90
34558;DHT22;24708;48.888;8.736;2023-06-22T11:22:20;33.70;99.00
34558;DHT22;24708;48.888;8.736;2023-06-22T11:24:47;33.40;98.10
34558;DHT22;24708;48.888;8.736;2023-06-22T11:27:15;33.10;98.60
34558;DHT22;24708;48.888;8.736;2023-06-22T11:29:42;33.30;99.00
34558;DHT22;24708;48.888;8.736;2023-06-22T11:32:10;32.90;99.90
34558;DHT22;24708;48.888;8.736;2023-06-22T11:34:40;32.30;99.90
34558;DHT22;24708;48.888;8.736;2023-06-22T11:37:08;33.10;99.90
34558;DHT22;24708;48.888;8.736;2023-06-22T11:39:35;32.20;99.90
34558;DHT22;24708;48.888;8.736;2023-06-22T11:42:09;32.70;99.90
34558;DHT22;24708;48.888;8.736;2023-06-22T11:44:37;31.60;99.90
34558;DHT22;24708;48.888;8.736;2023-06-22T11:47:05;31.80;99.90
34558;DHT22;24708;48.888;8.736;2023-06-22T11:49:32;31.60;99.90
34558;DHT22;24708;48.888;8.736;2023-06-22T11:51:59;31.20;99.90
34558;DHT22;24708;48.888;8.736;2023-06-22T11:54:27;31.90;99.90
34558;DHT22;24708;48.888;8.736;2023-06-22T11:56:54;31.20;99.90
34558;DHT22;24708;48.888;8.736;2023-06-22T11:59:22;31.00;99.90
34558;DHT22;24708;48.888;8.736;2023-06-22T12:01:49;30.20;99.90
34558;DHT22;24708;48.888;8.736;2023-06-22T12:04:20;30.70;99.90
34558;DHT22;24708;48.888;8.736;2023-06-22T12:06:47;30.30;99.90
34558;DHT22;24708;48.888;8.736;2023-06-22T12:09:14;30.50;99.90
34558;DHT22;24708;48.888;8.736;2023-06-22T12:14:09;29.90;99.90
34558;DHT22;24708;48.888;8.736;2023-06-22T12:19:05;29.30;99.90
34558;DHT22;24708;48.888;8.736;2023-06-22T12:21:32;30.50;99.90
34558;DHT22;24708;48.888;8.736;2023-06-22T12:23:59;29.60;99.90
34558;DHT22;24708;48.888;8.736;2023-06-22T12:28:54;30.60;99.90
34558;DHT22;24708;48.888;8.736;2023-06-22T12:31:21;30.60;99.90
34558;DHT22;24708;48.888;8.736;2023-06-22T12:33:48;30.80;99.90
34558;DHT22;24708;48.888;8.736;2023-06-22T12:36:15;30.90;99.90
34558;DHT22;24708;48.888;8.736;2023-06-22T12:38:43;31.10;99.90
34558;DHT22;24708;48.888;8.736;2023-06-22T12:43:38;31.90;99.90
34558;DHT22;24708;48.888;8.736;2023-06-22T12:46:05;31.60;99.90
34558;DHT22;24708;48.888;8.736;2023-06-22T12:48:32;31.90;99.90
34558;DHT22;24708;48.888;8.736;2023-06-22T12:51:00;32.00;99.90
34558;DHT22;24708;48.888;8.736;2023-06-22T12:53:36;32.20;99.90
34558;DHT22;24708;48.888;8.736;2023-06-22T12:56:03;32.10;99.90
34558;DHT22;24708;48.888;8.736;2023-06-22T12:58:31;31.90;99.90
34558;DHT22;24708;48.888;8.736;2023-06-22T13:00:58;31.70;99.90
34558;DHT22;24708;48.888;8.736;2023-06-22T13:03:25;32.10;99.90
34558;DHT22;24708;48.888;8.736;2023-06-22T13:05:55;31.70;99.90
34558;DHT22;24708;48.888;8.736;2023-06-22T13:08:22;31.90;99.90
34558;DHT22;24708;48.888;8.736;2023-06-22T13:11:10;31.90;99.90
34558;DHT22;24708;48.888;8.736;2023-06-22T13:13:38;32.30;99.90
34558;DHT22;24708;48.888;8.736;2023-06-22T13:16:05;32.00;99.90
34558;DHT22;24708;48.888;8.736;2023-06-22T13:18:33;32.40;99.90
34558;DHT22;24708;48.888;8.736;2023-06-22T13:21:03;32.80;99.90
34558;DHT22;24708;48.888;8.736;2023-06-22T13:23:31;32.90;99.90
34558;DHT22;24708;48.888;8.736;2023-06-22T13:25:58;32.90;99.90
34558;DHT22;24708;48.888;8.736;2023-06-22T13:28:25;32.70;99.90
34558;DHT22;24708;48.888;8.736;2023-06-22T13:30:55;32.60;99.90
34558;DHT22;24708;48.888;8.736;2023-06-22T13:33:22;32.40;99.90
34558;DHT22;24708;48.888;8.736;2023-06-22T13:35:49;32.30;99.90
34558;DHT22;24708;48.888;8.736;2023-06-22T13:40:44;32.50;99.90
34558;DHT22;24708;48.888;8.736;2023-06-22T13:43:12;32.80;99.90
34558;DHT22;24708;48.888;8.736;2023-06-22T13:48:07;33.10;99.90
34558;DHT22;24708;48.888;8.736;2023-06-22T13:50:37;33.00;99.90
34558;DHT22;24708;48.888;8.736;2023-06-22T13:53:04;32.40;99.90
34558;DHT22;24708;48.888;8.736;2023-06-22T13:55:32;32.70;99.90
34558;DHT22;24708;48.888;8.736;2023-06-22T13:58:00;32.50;99.90
34558;DHT22;24708;48.888;8.736;2023-06-22T14:02:56;32.50;99.90
34558;DHT22;24708;48.888;8.736;2023-06-22T14:05:23;32.60;99.00
34558;DHT22;24708;48.888;8.736;2023-06-22T14:10:19;32.70;99.90
34558;DHT22;24708;48.888;8.736;2023-06-22T14:17:41;32.10;99.90
34558;DHT22;24708;48.888;8.736;2023-06-22T14:20:08;32.30;99.90
34558;DHT22;24708;48.888;8.736;2023-06-22T14:22:36;32.30;99.90
34558;DHT22;24708;48.888;8.736;2023-06-22T14:25:04;32.20;99.90
34558;DHT22;24708;48.888;8.736;2023-06-22T14:29:59;31.60;99.90
34558;DHT22;24708;48.888;8.736;2023-06-22T14:32:28;32.60;99.90
34558;DHT22;24708;48.888;8.736;2023-06-22T14:34:57;32.60;99.90
34558;DHT22;24708;48.888;8.736;2023-06-22T14:39:51;32.50;99.90
34558;DHT22;24708;48.888;8.736;2023-06-22T14:42:19;33.20;99.90
34558;DHT22;24708;48.888;8.736;2023-06-22T14:47:18;31.70;99.90
34558;DHT22;24708;48.888;8.736;2023-06-22T14:52:13;32.10;99.90
34558;DHT22;24708;48.888;8.736;2023-06-22T14:57:09;31.60;99.90
34558;DHT22;24708;48.888;8.736;2023-06-22T14:59:36;31.50;99.90
34558;DHT22;24708;48.888;8.736;2023-06-22T15:07:01;31.60;99.90
34558;DHT22;24708;48.888;8.736;2023-06-22T15:11:57;31.00;99.90
34558;DHT22;24708;48.888;8.736;2023-06-22T15:29:11;30.40;99.90
34558;DHT22;24708;48.888;8.736;2023-06-22T15:31:38;30.40;99.90
34558;DHT22;24708;48.888;8.736;2023-06-22T15:36:34;30.60;99.90
34558;DHT22;24708;48.888;8.736;2023-06-22T15:44:00;31.20;99.90
34558;DHT22;24708;48.888;8.736;2023-06-22T15:46:27;31.10;99.90
34558;DHT22;24708;48.888;8.736;2023-06-22T15:51:22;31.40;99.90
34558;DHT22;24708;48.888;8.736;2023-06-22T15:56:17;30.90;99.90
